createdAt,value
2019-01-22T00:05:00.248Z,-6.70
2019-01-22T00:10:09.064Z,-6.80
2019-01-22T00:15:15.790Z,-6.90
2019-01-22T00:20:22.283Z,-7.00
2019-01-22T00:25:28.414Z,-7.00
2019-01-22T00:30:34.853Z,-7.00
2019-01-22T00:35:40.942Z,-7.20
2019-01-22T00:40:48.402Z,-7.20
2019-01-22T00:45:54.481Z,-7.30
2019-01-22T00:51:00.948Z,-7.10
2019-01-22T00:56:07.133Z,-7.00
2019-01-22T01:01:13.404Z,-7.30
2019-01-22T01:06:19.563Z,-7.40
2019-01-22T01:11:25.668Z,-7.50
2019-01-22T01:16:31.762Z,-7.40
2019-01-22T01:21:37.924Z,-7.40
2019-01-22T01:26:43.990Z,-7.30
2019-01-22T01:31:50.093Z,-7.30
2019-01-22T01:36:56.117Z,-7.50
2019-01-22T01:42:02.294Z,-7.40
2019-01-22T01:47:08.468Z,-7.40
2019-01-22T01:52:14.584Z,-7.40
2019-01-22T01:57:20.644Z,-7.50
2019-01-22T02:02:26.821Z,-7.50
2019-01-22T02:07:32.986Z,-7.70
2019-01-22T02:13:03.156Z,-7.70
2019-01-22T02:18:29.504Z,-7.60
2019-01-22T02:24:34.121Z,-7.60
2019-01-22T02:30:11.964Z,-7.50
2019-01-22T02:35:45.489Z,-7.50
2019-01-22T02:41:25.575Z,-7.50
2019-01-22T02:47:11.875Z,-7.60
2019-01-22T02:53:06.893Z,-7.70
2019-01-22T02:58:41.559Z,-7.70
2019-01-22T03:04:28.491Z,-7.80
2019-01-22T03:10:15.528Z,-7.70
2019-01-22T03:16:10.550Z,-7.70
2019-01-22T03:21:47.526Z,-7.60
2019-01-22T03:27:36.118Z,-7.70
2019-01-22T03:33:09.926Z,-7.80
2019-01-22T03:38:58.210Z,-7.70
2019-01-22T03:44:54.560Z,-7.70
2019-01-22T03:50:23.352Z,-7.70
2019-01-22T03:55:58.626Z,-7.80
2019-01-22T04:01:17.484Z,-7.90
2019-01-22T04:06:26.742Z,-8.00
2019-01-22T04:11:39.867Z,-8.10
2019-01-22T04:16:45.943Z,-8.10
2019-01-22T04:21:52.092Z,-8.10
2019-01-22T04:27:15.487Z,-8.10
2019-01-22T04:32:37.238Z,-8.10
2019-01-22T04:38:14.621Z,-8.20
2019-01-22T04:43:54.414Z,-8.10
2019-01-22T04:49:44.448Z,-8.20
2019-01-22T04:55:24.793Z,-8.20
2019-01-22T05:01:15.413Z,-8.10
2019-01-22T05:06:45.223Z,-8.20
2019-01-22T05:12:34.748Z,-8.30
2019-01-22T05:18:24.360Z,-8.30
2019-01-22T05:23:53.422Z,-8.30
2019-01-22T05:29:46.038Z,-8.40
2019-01-22T05:35:15.559Z,-8.40
2019-01-22T05:41:10.461Z,-8.40
2019-01-22T05:47:03.835Z,-8.50
2019-01-22T05:52:38.789Z,-8.40
2019-01-22T05:58:20.707Z,-8.40
2019-01-22T06:04:16.484Z,-8.30
2019-01-22T06:09:34.711Z,-8.40
2019-01-22T06:15:09.269Z,-8.40
2019-01-22T06:20:31.682Z,-8.60
2019-01-22T06:26:02.224Z,-8.70
2019-01-22T06:31:40.181Z,-8.70
2019-01-22T06:37:18.413Z,-8.70
2019-01-22T06:42:45.029Z,-8.60
2019-01-22T06:48:14.990Z,-8.70
2019-01-22T06:53:40.528Z,-8.80
2019-01-22T06:59:43.051Z,-8.80
2019-01-22T07:05:00.753Z,-8.80
2019-01-22T07:10:40.967Z,-8.70
2019-01-22T07:16:33.647Z,-8.60
2019-01-22T07:22:29.362Z,-8.70
2019-01-22T07:28:12.727Z,-8.70
2019-01-22T07:33:52.767Z,-8.60
2019-01-22T07:39:13.554Z,-8.40
2019-01-22T07:44:57.785Z,-8.20
2019-01-22T07:50:53.424Z,-8.20
2019-01-22T07:56:33.597Z,-8.10
2019-01-22T08:02:32.075Z,-7.90
2019-01-22T08:08:34.187Z,-7.80
2019-01-22T08:14:08.382Z,-7.70
2019-01-22T08:19:39.279Z,-7.60
2019-01-22T08:25:32.561Z,-7.50
2019-01-22T08:31:18.056Z,-7.50
2019-01-22T08:37:04.032Z,-7.30
2019-01-22T08:42:52.075Z,-7.00
2019-01-22T08:48:50.831Z,-7.10
2019-01-22T08:54:32.033Z,-7.00
2019-01-22T09:00:16.669Z,-6.90
2019-01-22T09:05:34.717Z,-6.80
2019-01-22T09:11:20.269Z,-6.60
2019-01-22T09:16:50.500Z,-6.40
2019-01-22T09:22:42.029Z,-6.10
2019-01-22T09:28:15.465Z,-6.00
2019-01-22T09:33:49.707Z,-5.90
2019-01-22T09:38:55.751Z,-5.90
2019-01-22T09:44:01.991Z,-5.90
2019-01-22T09:49:08.082Z,-5.60
2019-01-22T09:54:14.163Z,-5.50
2019-01-22T09:59:21.286Z,-5.50
2019-01-22T10:04:27.490Z,-5.30
2019-01-22T10:09:33.714Z,-5.10
2019-01-22T10:14:39.927Z,-4.90
2019-01-22T10:19:46.008Z,-4.70
2019-01-22T10:24:52.055Z,-4.50
2019-01-22T10:29:58.049Z,-4.40
2019-01-22T10:35:04.381Z,-4.40
2019-01-22T10:40:11.816Z,-4.30
2019-01-22T10:45:18.652Z,-4.10
2019-01-22T10:50:24.879Z,-4.10
2019-01-22T10:55:36.229Z,-3.90
2019-01-22T11:00:38.872Z,-3.80
2019-01-22T11:05:45.073Z,-3.60
2019-01-22T11:10:52.088Z,-3.50
2019-01-22T11:15:58.242Z,-3.30
2019-01-22T11:21:04.305Z,-3.20
2019-01-22T11:26:10.301Z,-3.10
2019-01-22T11:31:16.610Z,-3.10
2019-01-22T11:36:23.245Z,-3.10
2019-01-22T11:41:29.314Z,-3.10
2019-01-22T11:46:35.486Z,-3.00
2019-01-22T11:51:41.572Z,-2.90
2019-01-22T11:56:47.623Z,-2.90
2019-01-22T12:01:53.724Z,-2.90
2019-01-22T12:06:59.907Z,-2.80
2019-01-22T12:12:06.272Z,-2.70
2019-01-22T12:17:12.387Z,-2.60
2019-01-22T12:22:18.514Z,-2.50
2019-01-22T12:27:24.725Z,-2.50
2019-01-22T12:32:30.800Z,-2.40
2019-01-22T12:37:36.891Z,-2.30
2019-01-22T12:42:43.132Z,-2.20
2019-01-22T12:47:49.314Z,-1.90
2019-01-22T12:52:55.370Z,-1.70
2019-01-22T12:58:01.479Z,-1.80
2019-01-22T13:03:07.937Z,-1.90
2019-01-22T13:08:14.008Z,-1.90
2019-01-22T13:13:20.081Z,-2.00
2019-01-22T13:18:26.298Z,-2.00
2019-01-22T13:23:32.463Z,-2.00
2019-01-22T13:28:38.518Z,-2.00
2019-01-22T13:33:44.807Z,-2.00
2019-01-22T13:38:50.975Z,-2.10
2019-01-22T13:43:57.076Z,-2.10
2019-01-22T13:49:03.166Z,-2.20
2019-01-22T13:54:09.417Z,-2.20
2019-01-22T13:59:15.505Z,-2.30
2019-01-22T14:04:21.584Z,-2.30
2019-01-22T14:09:27.718Z,-2.30
2019-01-22T14:14:33.932Z,-2.40
2019-01-22T14:19:40.009Z,-2.20
2019-01-22T14:24:46.206Z,-2.30
2019-01-22T14:29:52.345Z,-2.30
2019-01-22T14:34:58.525Z,-2.40
2019-01-22T14:40:05.281Z,-2.40
2019-01-22T14:45:13.461Z,-2.50
2019-01-22T14:50:21.495Z,-2.80
2019-01-22T14:55:27.628Z,-3.00
2019-01-22T15:00:33.809Z,-3.00
2019-01-22T15:05:39.967Z,-3.10
2019-01-22T15:10:46.152Z,-3.20
2019-01-22T15:15:52.266Z,-3.40
2019-01-22T15:20:58.452Z,-3.50
2019-01-22T15:26:04.575Z,-3.70
2019-01-22T15:31:10.667Z,-3.80
2019-01-22T15:36:16.731Z,-3.90
2019-01-22T15:41:22.821Z,-4.00
2019-01-22T15:46:28.992Z,-4.20
2019-01-22T15:51:35.064Z,-4.40
2019-01-22T15:56:46.414Z,-4.50
2019-01-22T16:01:48.912Z,-4.60
2019-01-22T16:06:55.976Z,-4.60
2019-01-22T16:12:02.218Z,-4.70
2019-01-22T16:17:08.396Z,-4.80
2019-01-22T16:22:14.522Z,-4.90
2019-01-22T16:27:20.802Z,-5.00
2019-01-22T16:32:26.925Z,-5.10
2019-01-22T16:37:33.107Z,-5.20
2019-01-22T16:42:39.174Z,-5.20
2019-01-22T16:47:45.379Z,-5.20
2019-01-22T16:52:51.600Z,-5.30
2019-01-22T16:57:57.826Z,-5.40
2019-01-22T17:03:04.333Z,-5.50
2019-01-22T17:08:10.429Z,-5.60
2019-01-22T17:13:16.573Z,-5.50
2019-01-22T17:18:22.759Z,-5.50
2019-01-22T17:23:28.806Z,-5.60
2019-01-22T17:28:35.078Z,-5.80
2019-01-22T17:33:45.684Z,-5.80
2019-01-22T17:38:51.757Z,-5.80
2019-01-22T17:43:57.960Z,-5.90
2019-01-22T17:49:04.295Z,-5.90
2019-01-22T17:54:10.438Z,-6.00
2019-01-22T17:59:16.584Z,-6.00
2019-01-22T18:04:22.656Z,-6.10
2019-01-22T18:09:28.794Z,-6.20
2019-01-22T18:14:34.923Z,-6.20
2019-01-22T18:19:40.979Z,-6.10
2019-01-22T18:24:47.174Z,-6.20
2019-01-22T18:29:53.310Z,-6.30
2019-01-22T18:34:59.469Z,-6.40
2019-01-22T18:40:07.293Z,-6.50
2019-01-22T18:45:15.171Z,-6.60
2019-01-22T18:50:22.764Z,-6.60
2019-01-22T18:55:28.891Z,-6.60
2019-01-22T19:00:34.994Z,-6.70
2019-01-22T19:05:41.081Z,-6.70
2019-01-22T19:10:47.144Z,-6.80
2019-01-22T19:15:53.331Z,-6.80
2019-01-22T19:20:59.474Z,-6.90
2019-01-22T19:26:05.678Z,-6.80
2019-01-22T19:31:11.878Z,-7.00
2019-01-22T19:36:18.011Z,-7.00
2019-01-22T19:41:24.209Z,-7.10
2019-01-22T19:46:30.293Z,-7.10
2019-01-22T19:51:36.481Z,-7.10
2019-01-22T19:56:42.612Z,-7.00
2019-01-22T20:01:48.799Z,-7.10
2019-01-22T20:06:54.899Z,-7.30
2019-01-22T20:12:00.981Z,-7.40
2019-01-22T20:17:07.108Z,-7.50
2019-01-22T20:22:13.299Z,-7.40
2019-01-22T20:27:19.396Z,-7.40
2019-01-22T20:32:25.483Z,-7.40
2019-01-22T20:37:31.722Z,-7.60
2019-01-22T20:42:37.907Z,-7.50
2019-01-22T20:47:43.965Z,-7.60
2019-01-22T20:52:50.110Z,-7.70
2019-01-22T20:57:57.155Z,-7.80
2019-01-22T21:03:03.331Z,-7.70
2019-01-22T21:08:09.496Z,-7.70
2019-01-22T21:13:15.638Z,-7.70
2019-01-22T21:18:21.835Z,-7.70
2019-01-22T21:23:28.095Z,-7.80
2019-01-22T21:28:34.237Z,-7.70
2019-01-22T21:33:40.438Z,-7.80
2019-01-22T21:38:46.530Z,-8.00
2019-01-22T21:43:52.699Z,-7.80
2019-01-22T21:48:59.340Z,-7.90
2019-01-22T21:54:05.650Z,-8.10
2019-01-22T21:59:11.830Z,-8.10
2019-01-22T22:04:17.930Z,-8.10
2019-01-22T22:09:23.978Z,-8.10
2019-01-22T22:14:31.083Z,-8.30
2019-01-22T22:19:37.138Z,-8.30
2019-01-22T22:24:43.309Z,-8.30
2019-01-22T22:29:49.513Z,-8.30
2019-01-22T22:34:55.673Z,-8.20
2019-01-22T22:40:01.761Z,-8.30
2019-01-22T22:45:08.762Z,-8.30
2019-01-22T22:50:18.427Z,-8.50
2019-01-22T22:55:24.601Z,-8.50
2019-01-22T23:00:43.356Z,-8.60
2019-01-22T23:05:51.244Z,-8.30
2019-01-22T23:10:57.345Z,-8.60
2019-01-22T23:16:03.471Z,-8.70
2019-01-22T23:21:09.807Z,-8.60
2019-01-22T23:26:15.967Z,-8.40
2019-01-22T23:31:22.131Z,-8.50
2019-01-22T23:36:28.244Z,-8.70
2019-01-22T23:41:34.388Z,-8.80
2019-01-22T23:46:40.584Z,-8.70
2019-01-22T23:51:46.765Z,-8.70
2019-01-22T23:56:52.872Z,-8.70
